createdAt,value
2023-06-16T00:00:36.727Z,4.12
2023-06-16T00:01:36.839Z,4.09
2023-06-16T00:02:36.757Z,4.04
2023-06-16T00:03:36.758Z,4.04
2023-06-16T00:04:36.716Z,4.09
2023-06-16T00:05:36.723Z,4.10
2023-06-16T00:06:36.733Z,4.00
2023-06-16T00:07:36.730Z,4.04
2023-06-16T00:08:36.750Z,4.11
2023-06-16T00:09:36.759Z,3.97
2023-06-16T00:10:36.797Z,3.94
2023-06-16T00:11:36.759Z,4.01
2023-06-16T00:12:36.768Z,3.99
2023-06-16T00:13:36.763Z,3.92
2023-06-16T00:14:36.777Z,3.98
2023-06-16T00:15:36.789Z,4.03
2023-06-16T00:16:36.772Z,4.03
2023-06-16T00:17:36.834Z,3.94
2023-06-16T00:18:36.796Z,4.00
2023-06-16T00:19:36.820Z,3.95
2023-06-16T00:20:36.821Z,3.98
2023-06-16T00:21:36.835Z,3.98
2023-06-16T00:22:36.817Z,3.93
2023-06-16T00:23:36.817Z,3.84
2023-06-16T00:24:36.826Z,4.00
2023-06-16T00:25:36.827Z,3.85
2023-06-16T00:26:36.823Z,3.87
2023-06-16T00:27:36.838Z,3.98
2023-06-16T00:28:36.873Z,3.89
2023-06-16T00:29:36.842Z,3.86
2023-06-16T00:30:36.857Z,3.86
2023-06-16T00:31:36.856Z,3.87
2023-06-16T00:32:36.879Z,3.75
2023-06-16T00:33:36.883Z,3.82
2023-06-16T00:34:36.867Z,3.88
2023-06-16T00:35:36.883Z,3.88
2023-06-16T00:36:36.906Z,3.93
2023-06-16T00:37:36.899Z,3.72
2023-06-16T00:38:36.913Z,3.81
2023-06-16T00:39:36.946Z,3.78
2023-06-16T00:40:36.993Z,3.74
2023-06-16T00:41:36.930Z,3.76
2023-06-16T00:42:36.933Z,3.72
2023-06-16T00:43:36.964Z,3.70
2023-06-16T00:44:36.952Z,3.68
2023-06-16T00:45:36.969Z,3.73
2023-06-16T00:46:37.050Z,3.68
2023-06-16T00:47:37.057Z,3.69
2023-06-16T00:48:37.006Z,3.69
2023-06-16T00:49:37.033Z,3.67
2023-06-16T00:50:37.050Z,3.69
2023-06-16T00:51:37.030Z,3.66
2023-06-16T00:52:37.071Z,3.73
2023-06-16T00:53:37.061Z,3.68
2023-06-16T00:54:37.073Z,3.64
2023-06-16T00:55:37.140Z,3.68
2023-06-16T00:56:37.101Z,3.62
2023-06-16T00:57:37.107Z,3.62
2023-06-16T00:58:37.148Z,3.70
2023-06-16T00:59:37.146Z,3.61
2023-06-16T01:00:37.148Z,3.57
2023-06-16T01:01:37.152Z,3.67
2023-06-16T01:02:37.228Z,3.58
2023-06-16T01:03:37.198Z,3.58
2023-06-16T01:04:37.196Z,3.52
2023-06-16T01:05:37.222Z,3.53
2023-06-16T01:06:37.217Z,3.58
2023-06-16T01:07:37.245Z,3.55
2023-06-16T01:08:37.231Z,3.55
2023-06-16T01:09:37.244Z,3.46
2023-06-16T01:10:37.264Z,3.52
2023-06-16T01:11:37.281Z,3.47
2023-06-16T01:12:37.285Z,3.50
2023-06-16T01:13:37.290Z,3.46
2023-06-16T01:14:37.302Z,3.47
2023-06-16T01:15:37.359Z,3.51
2023-06-16T01:16:37.356Z,3.48
2023-06-16T01:17:37.363Z,3.40
2023-06-16T01:18:37.368Z,3.37
2023-06-16T01:19:37.372Z,3.39
2023-06-16T01:20:37.399Z,3.34
2023-06-16T01:21:37.419Z,3.42
2023-06-16T01:22:37.429Z,3.37
2023-06-16T01:23:37.441Z,3.38
2023-06-16T01:24:37.498Z,3.45
2023-06-16T01:25:37.480Z,3.32
2023-06-16T01:26:37.506Z,3.41
2023-06-16T01:27:37.514Z,3.37
2023-06-16T01:28:37.544Z,3.40
2023-06-16T01:29:37.639Z,3.34
2023-06-16T01:30:37.561Z,3.35
2023-06-16T01:31:37.602Z,3.34
2023-06-16T01:32:37.598Z,3.24
2023-06-16T01:33:37.603Z,3.37
2023-06-16T01:34:37.635Z,3.30
2023-06-16T01:35:37.657Z,3.33
2023-06-16T01:36:37.683Z,3.23
2023-06-16T01:37:37.691Z,3.26
2023-06-16T01:38:37.712Z,3.28
2023-06-16T01:39:37.747Z,3.26
2023-06-16T01:40:37.791Z,3.19
2023-06-16T01:41:37.794Z,3.22
2023-06-16T01:42:37.770Z,3.20
2023-06-16T01:43:37.791Z,3.23
2023-06-16T01:44:37.806Z,3.26
2023-06-16T01:45:37.845Z,3.18
2023-06-16T01:46:38.048Z,3.21
2023-06-16T01:47:38.008Z,3.18
2023-06-16T01:48:37.883Z,3.29
2023-06-16T01:49:37.900Z,3.21
2023-06-16T01:50:37.920Z,3.20
2023-06-16T01:51:37.933Z,3.18
2023-06-16T01:52:37.953Z,3.15
2023-06-16T01:53:37.975Z,3.19
2023-06-16T01:54:37.994Z,3.17
2023-06-16T01:55:38.012Z,3.16
2023-06-16T01:56:38.021Z,3.14
2023-06-16T01:57:38.047Z,3.06
2023-06-16T01:58:38.057Z,3.15
2023-06-16T01:59:38.080Z,3.15
2023-06-16T02:00:38.092Z,3.13
2023-06-16T02:01:38.102Z,3.09
2023-06-16T02:02:38.276Z,3.08
2023-06-16T02:03:38.275Z,3.08
2023-06-16T02:04:38.180Z,3.13
2023-06-16T02:05:38.181Z,3.09
2023-06-16T02:06:38.209Z,3.03
2023-06-16T02:07:38.212Z,3.03
2023-06-16T02:08:38.251Z,3.10
2023-06-16T02:09:38.258Z,3.06
2023-06-16T02:10:38.264Z,3.05
2023-06-16T02:11:38.293Z,2.98
2023-06-16T02:12:38.326Z,3.05
2023-06-16T02:13:38.330Z,3.04
2023-06-16T02:14:38.362Z,3.07
2023-06-16T02:15:38.365Z,3.04
2023-06-16T02:16:38.566Z,2.99
2023-06-16T02:17:38.463Z,2.98
2023-06-16T02:18:38.428Z,3.00
2023-06-16T02:19:38.448Z,3.08
2023-06-16T02:20:38.466Z,2.98
2023-06-16T02:21:38.487Z,3.01
2023-06-16T02:22:38.506Z,2.98
2023-06-16T02:23:38.538Z,3.01
2023-06-16T02:24:38.572Z,2.92
2023-06-16T02:25:38.580Z,2.99
2023-06-16T02:26:38.607Z,2.91
2023-06-16T02:27:38.612Z,2.94
2023-06-16T02:28:38.626Z,2.97
2023-06-16T02:29:38.645Z,2.92
2023-06-16T02:30:38.695Z,3.00
2023-06-16T02:31:38.690Z,2.94
2023-06-16T02:32:46.198Z,2.95
2023-06-16T02:33:39.711Z,2.95
2023-06-16T02:34:38.692Z,2.95
2023-06-16T02:35:38.695Z,2.95
2023-06-16T02:36:38.666Z,2.93
2023-06-16T02:37:38.668Z,2.91
2023-06-16T02:38:38.660Z,2.94
2023-06-16T02:39:38.660Z,2.90
2023-06-16T02:40:38.641Z,2.91
2023-06-16T02:41:38.650Z,2.89
2023-06-16T02:42:38.628Z,2.86
2023-06-16T02:43:38.614Z,2.88
2023-06-16T02:44:38.610Z,2.89
2023-06-16T02:45:38.614Z,2.80
2023-06-16T02:46:38.681Z,2.79
2023-06-16T02:47:38.645Z,2.84
2023-06-16T02:48:38.586Z,2.82
2023-06-16T02:49:38.595Z,2.83
2023-06-16T02:50:38.592Z,2.75
2023-06-16T02:51:38.570Z,2.81
2023-06-16T02:52:38.555Z,2.80
2023-06-16T02:53:38.555Z,2.76
2023-06-16T02:54:38.546Z,2.77
2023-06-16T02:55:38.559Z,2.71
2023-06-16T02:56:38.540Z,2.77
2023-06-16T02:57:38.525Z,2.74
2023-06-16T02:58:38.518Z,2.77
2023-06-16T02:59:38.509Z,2.73
2023-06-16T03:00:38.550Z,2.77
2023-06-16T03:01:38.527Z,2.75
2023-06-16T03:02:38.569Z,2.74
2023-06-16T03:03:38.597Z,2.73
2023-06-16T03:04:38.550Z,2.72
2023-06-16T03:05:38.593Z,2.70
2023-06-16T03:06:38.595Z,2.72
2023-06-16T03:07:38.619Z,2.71
2023-06-16T03:08:38.621Z,2.60
2023-06-16T03:09:38.629Z,2.64
2023-06-16T03:10:38.651Z,2.65
2023-06-16T03:11:38.732Z,2.66
2023-06-16T03:12:38.682Z,2.66
2023-06-16T03:13:38.707Z,2.58
2023-06-16T03:14:38.741Z,2.63
2023-06-16T03:15:38.734Z,2.63
2023-06-16T03:16:38.878Z,2.60
2023-06-16T03:17:38.775Z,2.60
2023-06-16T03:18:38.795Z,2.61
2023-06-16T03:19:38.812Z,2.60
2023-06-16T03:20:38.841Z,2.57
2023-06-16T03:21:38.867Z,2.59
2023-06-16T03:22:38.871Z,2.63
2023-06-16T03:23:38.916Z,2.51
2023-06-16T03:24:38.967Z,2.65
2023-06-16T03:25:38.951Z,2.62
2023-06-16T03:26:38.953Z,2.57
2023-06-16T03:27:38.976Z,2.57
2023-06-16T03:28:38.993Z,2.59
2023-06-16T03:29:39.023Z,2.54
2023-06-16T03:30:39.055Z,2.56
2023-06-16T03:31:39.107Z,2.55
2023-06-16T03:32:39.217Z,2.55
2023-06-16T03:33:39.087Z,2.47
2023-06-16T03:34:39.118Z,2.44
2023-06-16T03:35:39.153Z,2.55
2023-06-16T03:36:39.159Z,2.57
2023-06-16T03:37:39.159Z,2.53
2023-06-16T03:38:39.166Z,2.48
2023-06-16T03:39:39.226Z,2.50
2023-06-16T03:40:39.218Z,2.44
2023-06-16T03:41:39.268Z,2.48
2023-06-16T03:42:39.245Z,2.45
2023-06-16T03:43:39.279Z,2.49
2023-06-16T03:44:39.322Z,2.46
2023-06-16T03:45:39.382Z,2.48
2023-06-16T03:46:39.324Z,2.43
2023-06-16T03:47:39.392Z,2.45
2023-06-16T03:48:39.352Z,2.41
2023-06-16T03:49:39.410Z,2.48
2023-06-16T03:50:39.435Z,2.45
2023-06-16T03:51:39.431Z,2.36
2023-06-16T03:52:39.425Z,2.39
2023-06-16T03:53:39.452Z,2.37
2023-06-16T03:54:39.464Z,2.35
2023-06-16T03:55:39.510Z,2.47
2023-06-16T03:56:39.496Z,2.50
2023-06-16T03:57:39.523Z,2.41
2023-06-16T03:58:39.542Z,2.40
2023-06-16T03:59:39.538Z,2.37
2023-06-16T04:00:39.580Z,2.44
2023-06-16T04:01:39.656Z,2.46
2023-06-16T04:02:39.669Z,2.39
2023-06-16T04:03:39.666Z,2.34
2023-06-16T04:04:39.636Z,2.35
2023-06-16T04:05:39.653Z,2.40
2023-06-16T04:06:39.653Z,2.34
2023-06-16T04:07:39.668Z,2.42
2023-06-16T04:08:39.710Z,2.38
2023-06-16T04:09:39.706Z,2.34
2023-06-16T04:10:39.725Z,2.37
2023-06-16T04:11:39.729Z,2.30
2023-06-16T04:12:39.766Z,2.27
2023-06-16T04:13:39.773Z,2.27
2023-06-16T04:14:39.808Z,2.27
2023-06-16T04:15:39.806Z,2.32
2023-06-16T04:16:39.836Z,2.32
2023-06-16T04:17:39.871Z,2.39
2023-06-16T04:18:39.853Z,2.36
2023-06-16T04:19:39.878Z,2.32
2023-06-16T04:20:39.903Z,2.27
2023-06-16T04:21:39.903Z,2.28
2023-06-16T04:22:39.924Z,2.28
2023-06-16T04:23:39.968Z,2.33
2023-06-16T04:24:39.964Z,2.30
2023-06-16T04:25:39.992Z,2.29
2023-06-16T04:26:40.021Z,2.29
2023-06-16T04:27:40.036Z,2.33
2023-06-16T04:28:40.050Z,2.29
2023-06-16T04:29:40.069Z,2.29
2023-06-16T04:30:40.243Z,2.28
2023-06-16T04:31:40.105Z,2.26
2023-06-16T04:32:40.155Z,2.30
2023-06-16T04:33:40.124Z,2.27
2023-06-16T04:34:40.176Z,2.29
2023-06-16T04:35:40.178Z,2.21
2023-06-16T04:36:40.221Z,2.24
2023-06-16T04:37:40.197Z,2.24
2023-06-16T04:38:40.220Z,2.24
2023-06-16T04:39:40.228Z,2.25
2023-06-16T04:40:40.247Z,2.24
2023-06-16T04:41:40.274Z,2.20
2023-06-16T04:42:40.323Z,2.28
2023-06-16T04:43:40.325Z,2.23
2023-06-16T04:44:40.322Z,2.19
2023-06-16T04:45:40.356Z,2.18
2023-06-16T04:46:40.340Z,2.22
2023-06-16T04:47:40.383Z,2.24
2023-06-16T04:48:40.379Z,2.20
2023-06-16T04:49:40.393Z,2.19
2023-06-16T04:50:40.418Z,2.19
2023-06-16T04:51:40.426Z,2.21
2023-06-16T04:52:40.423Z,2.11
2023-06-16T04:53:40.444Z,2.16
2023-06-16T04:54:40.458Z,2.20
2023-06-16T04:55:40.473Z,2.18
2023-06-16T04:56:40.492Z,2.16
2023-06-16T04:57:40.537Z,2.19
2023-06-16T04:58:40.521Z,2.13
2023-06-16T04:59:40.539Z,2.11
2023-06-16T05:00:40.568Z,2.17
2023-06-16T05:01:40.560Z,2.23
2023-06-16T05:02:40.618Z,2.17
2023-06-16T05:03:40.683Z,2.22
2023-06-16T05:04:40.638Z,2.16
2023-06-16T05:05:40.635Z,2.14
2023-06-16T05:06:40.663Z,2.17
2023-06-16T05:07:40.690Z,2.12
2023-06-16T05:08:40.687Z,2.15
2023-06-16T05:09:40.745Z,2.19
2023-06-16T05:10:40.759Z,2.12
2023-06-16T05:11:40.761Z,2.16
2023-06-16T05:12:40.759Z,2.16
2023-06-16T05:13:40.811Z,2.11
2023-06-16T05:14:40.792Z,2.10
2023-06-16T05:15:40.805Z,2.11
2023-06-16T05:16:40.877Z,2.13
2023-06-16T05:17:41.105Z,2.06
2023-06-16T05:18:40.892Z,2.15
2023-06-16T05:19:40.857Z,2.13
2023-06-16T05:20:40.878Z,2.05
2023-06-16T05:21:40.886Z,2.08
2023-06-16T05:22:40.904Z,2.11
2023-06-16T05:23:40.967Z,2.11
2023-06-16T05:24:41.033Z,2.09
2023-06-16T05:25:40.951Z,2.09
2023-06-16T05:26:40.948Z,2.14
2023-06-16T05:27:40.950Z,2.05
2023-06-16T05:28:40.972Z,2.08
2023-06-16T05:29:41.005Z,2.06
2023-06-16T05:30:41.023Z,2.09
2023-06-16T05:31:41.021Z,2.06
2023-06-16T05:32:41.074Z,2.09
2023-06-16T05:33:41.024Z,2.08
2023-06-16T05:34:41.052Z,2.07
2023-06-16T05:35:41.035Z,2.02
2023-06-16T05:36:41.087Z,2.09
2023-06-16T05:37:41.142Z,2.08
2023-06-16T05:38:41.105Z,2.11
2023-06-16T05:39:41.111Z,2.16
2023-06-16T05:40:41.144Z,2.30
2023-06-16T05:41:42.854Z,2.39
2023-06-16T05:42:41.220Z,2.45
2023-06-16T05:43:41.179Z,2.52
2023-06-16T05:44:41.206Z,2.59
2023-06-16T05:45:41.188Z,2.58
2023-06-16T05:46:41.210Z,2.71
2023-06-16T05:47:41.266Z,2.64
2023-06-16T05:48:43.065Z,2.77
2023-06-16T05:49:41.215Z,2.87
2023-06-16T05:50:41.303Z,2.68
2023-06-16T05:51:41.195Z,2.63
2023-06-16T05:52:41.165Z,2.63
2023-06-16T05:53:41.162Z,2.64
2023-06-16T05:54:41.157Z,2.69
2023-06-16T05:55:41.161Z,2.80
2023-06-16T05:56:41.136Z,2.73
2023-06-16T05:57:41.206Z,2.70
2023-06-16T05:58:41.124Z,2.82
2023-06-16T05:59:41.123Z,2.84
2023-06-16T06:00:41.114Z,2.92
2023-06-16T06:01:41.117Z,2.97
2023-06-16T06:02:41.207Z,3.04
2023-06-16T06:03:41.307Z,3.08
2023-06-16T06:04:41.123Z,3.15
2023-06-16T06:05:41.106Z,3.12
2023-06-16T06:06:41.071Z,3.16
2023-06-16T06:07:41.068Z,3.15
2023-06-16T06:08:41.068Z,3.20
2023-06-16T06:09:41.054Z,3.22
2023-06-16T06:10:41.049Z,3.27
2023-06-16T06:11:41.053Z,3.28
2023-06-16T06:12:41.043Z,3.29
2023-06-16T06:13:41.058Z,3.25
2023-06-16T06:14:41.025Z,3.32
2023-06-16T06:15:41.094Z,3.23
2023-06-16T06:16:41.003Z,3.29
2023-06-16T06:17:41.063Z,3.24
2023-06-16T06:18:40.986Z,3.26
2023-06-16T06:19:40.987Z,3.31
2023-06-16T06:20:40.989Z,3.32
2023-06-16T06:21:41.006Z,3.30
2023-06-16T06:22:40.966Z,3.24
2023-06-16T06:23:40.966Z,3.25
2023-06-16T06:24:40.945Z,3.27
2023-06-16T06:25:40.953Z,3.22
2023-06-16T06:26:40.938Z,3.27
2023-06-16T06:27:40.935Z,3.26
2023-06-16T06:28:40.925Z,3.25
2023-06-16T06:29:41.097Z,3.26
2023-06-16T06:30:40.944Z,3.23
2023-06-16T06:31:40.979Z,3.17
2023-06-16T06:32:40.941Z,3.08
2023-06-16T06:33:40.898Z,3.01
2023-06-16T06:34:40.885Z,3.16
2023-06-16T06:35:40.932Z,3.10
2023-06-16T06:36:40.866Z,3.14
2023-06-16T06:37:40.883Z,3.21
2023-06-16T06:38:40.858Z,3.19
2023-06-16T06:39:40.853Z,3.14
2023-06-16T06:40:40.882Z,2.95
2023-06-16T06:41:40.844Z,2.81
2023-06-16T06:42:40.843Z,2.97
2023-06-16T06:43:40.823Z,3.02
2023-06-16T06:44:40.826Z,3.10
2023-06-16T06:45:40.823Z,3.19
2023-06-16T06:46:40.921Z,3.43
2023-06-16T06:47:40.843Z,2.22
2023-06-16T06:48:40.821Z,1.68
2023-06-16T06:49:40.785Z,1.11
2023-06-16T06:50:41.311Z,0.91
2023-06-16T06:51:40.803Z,0.74
2023-06-16T06:52:40.793Z,0.62
2023-06-16T06:53:40.766Z,0.59
2023-06-16T06:54:40.770Z,0.70
2023-06-16T06:55:40.808Z,0.77
2023-06-16T06:56:40.749Z,0.79
2023-06-16T06:57:40.731Z,0.81
2023-06-16T06:58:40.765Z,0.89
2023-06-16T06:59:40.719Z,0.94
2023-06-16T07:00:40.757Z,0.95
2023-06-16T07:01:40.769Z,1.03
2023-06-16T07:02:40.877Z,1.13
2023-06-16T07:03:40.767Z,1.18
2023-06-16T07:04:40.713Z,1.25
2023-06-16T07:05:40.688Z,1.33
2023-06-16T07:06:40.681Z,1.42
2023-06-16T07:07:40.666Z,1.47
2023-06-16T07:08:40.674Z,1.49
2023-06-16T07:09:40.668Z,1.66
2023-06-16T07:10:40.677Z,1.73
2023-06-16T07:11:40.657Z,1.87
2023-06-16T07:12:40.638Z,2.04
2023-06-16T07:13:40.676Z,2.15
2023-06-16T07:14:40.629Z,2.26
2023-06-16T07:15:40.660Z,2.26
2023-06-16T07:16:40.649Z,2.22
2023-06-16T07:17:42.729Z,2.46
2023-06-16T07:18:40.611Z,2.69
2023-06-16T07:19:40.599Z,3.10
2023-06-16T07:20:40.613Z,2.83
2023-06-16T07:21:40.679Z,3.00
2023-06-16T07:22:40.736Z,2.94
2023-06-16T07:23:40.799Z,3.00
2023-06-16T07:24:40.932Z,3.15
2023-06-16T07:25:40.911Z,3.10
2023-06-16T07:26:40.939Z,2.90
2023-06-16T07:27:41.013Z,3.07
2023-06-16T07:28:41.059Z,3.03
2023-06-16T07:29:41.133Z,3.24
2023-06-16T07:30:41.202Z,3.13
2023-06-16T07:31:41.264Z,3.09
2023-06-16T07:32:41.322Z,3.03
2023-06-16T07:33:41.364Z,3.09
2023-06-16T07:34:41.548Z,2.57
2023-06-16T07:35:41.503Z,1.80
2023-06-16T07:36:41.555Z,1.19
2023-06-16T07:37:41.851Z,0.86
2023-06-16T07:38:41.682Z,0.77
2023-06-16T07:39:41.717Z,0.89
2023-06-16T07:40:41.758Z,1.05
2023-06-16T07:41:41.789Z,1.03
2023-06-16T07:42:41.876Z,1.06
2023-06-16T07:43:41.910Z,1.18
2023-06-16T07:44:41.969Z,1.25
2023-06-16T07:45:42.047Z,1.25
2023-06-16T07:46:42.094Z,1.30
2023-06-16T07:47:42.200Z,1.54
2023-06-16T07:48:42.213Z,1.51
2023-06-16T07:49:42.262Z,1.78
2023-06-16T07:50:42.340Z,2.07
2023-06-16T07:51:42.370Z,2.37
2023-06-16T07:52:42.434Z,2.77
2023-06-16T07:53:42.494Z,3.25
2023-06-16T07:54:42.524Z,3.66
2023-06-16T07:55:42.584Z,3.92
2023-06-16T07:56:42.617Z,4.26
2023-06-16T07:57:42.667Z,4.37
2023-06-16T07:58:42.779Z,4.71
2023-06-16T07:59:42.770Z,4.72
2023-06-16T08:00:42.846Z,4.94
2023-06-16T08:01:42.866Z,4.86
2023-06-16T08:02:42.979Z,4.98
2023-06-16T08:03:43.050Z,5.24
2023-06-16T08:04:43.018Z,5.35
2023-06-16T08:05:43.020Z,5.64
2023-06-16T08:06:43.061Z,5.68
2023-06-16T08:07:43.115Z,6.10
2023-06-16T08:08:43.179Z,6.45
2023-06-16T08:09:43.197Z,6.90
2023-06-16T08:10:43.259Z,6.89
2023-06-16T08:11:43.284Z,6.93
2023-06-16T08:12:43.352Z,6.71
2023-06-16T08:13:43.380Z,6.94
2023-06-16T08:14:43.420Z,6.58
2023-06-16T08:15:43.517Z,6.35
2023-06-16T08:16:43.547Z,6.17
2023-06-16T08:17:43.590Z,6.14
2023-06-16T08:18:43.628Z,6.32
2023-06-16T08:19:43.645Z,6.23
2023-06-16T08:20:43.707Z,6.05
2023-06-16T08:21:43.754Z,5.81
2023-06-16T08:22:43.828Z,6.26
2023-06-16T08:23:43.874Z,5.92
2023-06-16T08:24:43.902Z,5.38
2023-06-16T08:25:43.948Z,4.67
2023-06-16T08:26:43.999Z,4.15
2023-06-16T08:27:44.048Z,4.39
2023-06-16T08:28:44.118Z,3.91
2023-06-16T08:29:44.191Z,3.79
2023-06-16T08:30:44.369Z,4.12
2023-06-16T08:31:44.241Z,3.86
2023-06-16T08:32:44.354Z,3.51
2023-06-16T08:33:44.358Z,3.64
2023-06-16T08:34:44.444Z,3.89
2023-06-16T08:35:44.845Z,3.44
2023-06-16T08:36:44.548Z,3.26
2023-06-16T08:37:44.847Z,3.45
2023-06-16T08:38:44.673Z,3.16
2023-06-16T08:39:44.719Z,3.17
2023-06-16T08:40:44.776Z,3.27
2023-06-16T08:41:44.891Z,3.16
2023-06-16T08:42:44.904Z,2.38
2023-06-16T08:43:44.963Z,2.49
2023-06-16T08:44:45.026Z,2.22
2023-06-16T08:45:45.069Z,2.12
2023-06-16T08:46:45.154Z,2.46
2023-06-16T08:47:45.363Z,2.55
2023-06-16T08:48:45.307Z,2.60
2023-06-16T08:49:45.339Z,2.68
2023-06-16T08:50:45.376Z,2.71
2023-06-16T08:51:45.454Z,3.06
2023-06-16T08:52:46.219Z,3.34
2023-06-16T08:53:45.534Z,3.53
2023-06-16T08:54:45.578Z,3.64
2023-06-16T08:55:45.642Z,3.71
2023-06-16T08:56:45.708Z,3.91
2023-06-16T08:57:45.745Z,3.98
2023-06-16T08:58:45.754Z,3.99
2023-06-16T08:59:45.778Z,4.19
2023-06-16T09:00:45.812Z,4.37
2023-06-16T09:01:45.855Z,4.30
2023-06-16T09:02:45.984Z,4.46
2023-06-16T09:03:45.961Z,4.56
2023-06-16T09:04:45.944Z,4.41
2023-06-16T09:05:45.980Z,4.19
2023-06-16T09:06:45.982Z,4.22
2023-06-16T09:07:46.018Z,4.35
2023-06-16T09:08:46.041Z,4.41
2023-06-16T09:09:46.062Z,4.31
2023-06-16T09:10:46.074Z,3.93
2023-06-16T09:11:46.086Z,3.66
2023-06-16T09:12:46.115Z,3.58
2023-06-16T09:13:46.134Z,3.81
2023-06-16T09:14:46.146Z,3.77
2023-06-16T09:15:46.165Z,2.78
2023-06-16T09:16:46.315Z,0.99
2023-06-16T09:17:46.214Z,0.75
2023-06-16T09:18:46.281Z,0.65
2023-06-16T09:19:46.253Z,0.35
2023-06-16T09:20:46.311Z,0.41
2023-06-16T09:21:49.813Z,0.46
2023-06-16T09:22:47.373Z,0.44
2023-06-16T09:23:46.360Z,0.39
2023-06-16T09:24:46.335Z,0.34
2023-06-16T09:25:46.313Z,0.34
2023-06-16T09:26:46.350Z,0.34
2023-06-16T09:27:46.310Z,0.34
2023-06-16T09:28:46.316Z,0.34
2023-06-16T09:29:46.293Z,0.34
2023-06-16T09:30:48.988Z,0.58
2023-06-16T09:31:47.288Z,0.55
2023-06-16T09:32:46.321Z,0.59
2023-06-16T09:33:46.439Z,0.64
2023-06-16T09:34:46.257Z,0.81
2023-06-16T09:35:46.270Z,1.07
2023-06-16T09:36:46.273Z,1.16
2023-06-16T09:37:46.242Z,1.32
2023-06-16T09:38:46.258Z,1.11
2023-06-16T09:39:46.225Z,1.01
2023-06-16T09:40:46.219Z,1.13
2023-06-16T09:41:46.211Z,1.17
2023-06-16T09:42:46.206Z,1.23
2023-06-16T09:43:46.227Z,0.94
2023-06-16T09:44:46.254Z,0.90
2023-06-16T09:45:46.314Z,0.56
2023-06-16T09:46:46.347Z,0.51
2023-06-16T09:47:46.434Z,0.43
2023-06-16T09:48:46.385Z,0.50
2023-06-16T09:49:46.382Z,0.44
2023-06-16T09:50:46.389Z,0.47
2023-06-16T09:51:46.430Z,0.44
2023-06-16T09:52:46.451Z,0.47
2023-06-16T09:53:46.497Z,0.53
2023-06-16T09:54:46.544Z,0.49
2023-06-16T09:55:46.569Z,0.52
2023-06-16T09:56:46.579Z,0.61
2023-06-16T09:57:46.601Z,0.65
2023-06-16T09:58:46.580Z,0.61
2023-06-16T09:59:46.581Z,0.60
2023-06-16T10:00:46.595Z,0.54
2023-06-16T10:01:46.630Z,0.59
2023-06-16T10:02:46.763Z,0.60
2023-06-16T10:03:46.678Z,0.61
2023-06-16T10:04:46.686Z,0.62
2023-06-16T10:05:46.653Z,0.61
2023-06-16T10:06:46.679Z,0.74
2023-06-16T10:07:46.702Z,0.80
2023-06-16T10:08:46.684Z,0.81
2023-06-16T10:10:02.187Z,0.73
2023-06-16T10:10:47.709Z,0.70
2023-06-16T10:11:46.660Z,0.66
2023-06-16T10:12:46.746Z,0.75
2023-06-16T10:13:46.653Z,0.71
2023-06-16T10:14:46.659Z,0.83
2023-06-16T10:15:46.644Z,0.84
2023-06-16T10:16:46.671Z,0.78
2023-06-16T10:17:46.723Z,0.81
2023-06-16T10:18:46.720Z,1.01
2023-06-16T10:19:46.609Z,1.03
2023-06-16T10:20:46.600Z,1.05
2023-06-16T10:21:46.610Z,1.02
2023-06-16T10:22:46.615Z,0.99
2023-06-16T10:23:46.654Z,1.10
2023-06-16T10:24:46.583Z,1.15
2023-06-16T10:25:46.564Z,1.31
2023-06-16T10:26:46.550Z,1.11
2023-06-16T10:27:46.545Z,1.14
2023-06-16T10:28:46.553Z,1.34
2023-06-16T10:29:46.576Z,1.35
2023-06-16T10:30:46.568Z,2.47
2023-06-16T10:31:46.532Z,3.45
2023-06-16T10:32:46.651Z,3.86
2023-06-16T10:33:46.630Z,4.36
2023-06-16T10:34:46.696Z,4.59
2023-06-16T10:35:46.763Z,5.18
2023-06-16T10:36:46.823Z,5.11
2023-06-16T10:37:46.956Z,5.07
2023-06-16T10:38:46.974Z,4.91
2023-06-16T10:39:47.011Z,5.76
2023-06-16T10:40:47.044Z,4.15
2023-06-16T10:41:47.090Z,3.46
2023-06-16T10:42:47.156Z,3.15
2023-06-16T10:43:47.177Z,4.24
2023-06-16T10:44:47.293Z,3.93
2023-06-16T10:45:47.449Z,3.40
2023-06-16T10:46:47.403Z,2.84
2023-06-16T10:47:47.498Z,2.44
2023-06-16T10:48:47.495Z,2.49
2023-06-16T10:49:47.587Z,2.25
2023-06-16T10:50:47.627Z,2.41
2023-06-16T10:51:47.641Z,2.26
2023-06-16T10:52:47.708Z,2.41
2023-06-16T10:53:47.790Z,2.13
2023-06-16T10:54:47.889Z,2.44
2023-06-16T10:55:47.908Z,2.26
2023-06-16T10:56:53.646Z,2.78
2023-06-16T10:57:48.986Z,2.79
2023-06-16T10:58:49.567Z,2.87
2023-06-16T10:59:47.921Z,2.81
2023-06-16T11:00:47.928Z,3.09
2023-06-16T11:01:47.978Z,3.35
2023-06-16T11:02:47.988Z,4.92
2023-06-16T11:03:48.215Z,6.94
2023-06-16T11:04:47.892Z,9.57
2023-06-16T11:05:47.884Z,9.58
2023-06-16T11:06:58.627Z,11.13
2023-06-16T11:07:48.887Z,11.16
2023-06-16T11:08:47.868Z,11.46
2023-06-16T11:09:47.863Z,11.43
2023-06-16T11:10:47.876Z,12.14
2023-06-16T11:11:47.853Z,12.36
2023-06-16T11:12:47.857Z,11.54
2023-06-16T11:13:47.857Z,12.28
2023-06-16T11:14:47.814Z,11.43
2023-06-16T11:15:47.860Z,12.06
2023-06-16T11:16:47.856Z,13.22
2023-06-16T11:17:47.862Z,12.41
2023-06-16T11:18:47.802Z,11.30
2023-06-16T11:19:47.828Z,12.13
2023-06-16T11:20:47.785Z,11.92
2023-06-16T11:21:47.807Z,13.47
2023-06-16T11:22:47.767Z,14.59
2023-06-16T11:23:47.783Z,17.52
2023-06-16T11:24:47.753Z,16.29
2023-06-16T11:25:47.762Z,17.36
2023-06-16T11:26:47.793Z,18.57
2023-06-16T11:27:47.736Z,20.69
2023-06-16T11:28:47.771Z,23.71
2023-06-16T11:29:47.801Z,22.88
2023-06-16T11:30:47.858Z,24.31
2023-06-16T11:32:48.021Z,25.82
2023-06-16T11:33:48.048Z,26.30
2023-06-16T11:34:48.085Z,27.13
2023-06-16T11:35:48.131Z,28.43
2023-06-16T11:36:49.472Z,27.97
2023-06-16T11:37:48.193Z,28.43
2023-06-16T11:38:48.194Z,29.66
2023-06-16T11:39:48.169Z,29.75
2023-06-16T11:40:51.065Z,31.92
2023-06-16T11:42:48.340Z,32.07
2023-06-16T11:43:48.421Z,32.38
2023-06-16T11:44:48.477Z,33.79
2023-06-16T11:45:48.548Z,35.25
2023-06-16T11:46:48.674Z,36.16
2023-06-16T11:47:48.655Z,37.24
2023-06-16T11:48:48.707Z,37.76
2023-06-16T11:49:48.773Z,36.94
2023-06-16T11:50:48.846Z,37.23
2023-06-16T11:51:48.906Z,39.25
2023-06-16T11:52:48.983Z,40.95
2023-06-16T11:53:49.028Z,41.25
2023-06-16T11:54:49.096Z,40.78
2023-06-16T11:55:49.143Z,41.13
2023-06-16T11:56:49.211Z,40.69
2023-06-16T11:57:49.262Z,40.67
2023-06-16T11:58:49.327Z,41.21
2023-06-16T11:59:49.377Z,40.66
2023-06-16T12:00:49.491Z,41.34
2023-06-16T12:01:49.517Z,42.81
2023-06-16T12:02:49.594Z,42.32
2023-06-16T12:04:49.628Z,44.78
2023-06-16T12:05:49.626Z,44.35
2023-06-16T12:06:49.686Z,44.37
2023-06-16T12:07:49.610Z,44.66
2023-06-16T12:08:49.609Z,45.04
2023-06-16T12:09:49.580Z,44.93
2023-06-16T12:10:49.585Z,45.15
2023-06-16T12:11:49.584Z,44.76
2023-06-16T12:12:49.570Z,44.66
2023-06-16T12:13:49.562Z,43.83
2023-06-16T12:14:49.550Z,44.46
2023-06-16T12:15:49.556Z,44.79
2023-06-16T12:16:49.568Z,45.65
2023-06-16T12:17:49.560Z,45.30
2023-06-16T12:18:49.534Z,46.43
2023-06-16T12:19:49.548Z,46.03
2023-06-16T12:20:49.530Z,46.00
2023-06-16T12:21:49.527Z,45.39
2023-06-16T12:22:49.521Z,45.69
2023-06-16T12:23:49.554Z,46.82
2023-06-16T12:24:49.514Z,46.04
2023-06-16T12:25:49.500Z,45.72
2023-06-16T12:26:49.577Z,45.82
2023-06-16T12:27:49.477Z,47.64
2023-06-16T12:28:49.499Z,47.08
2023-06-16T12:29:49.481Z,46.78
2023-06-16T12:30:49.493Z,45.80
2023-06-16T12:31:49.471Z,46.28
2023-06-16T12:32:49.513Z,46.27
2023-06-16T12:33:49.444Z,46.32
2023-06-16T12:34:49.470Z,46.06
2023-06-16T12:35:49.421Z,45.36
2023-06-16T12:36:49.429Z,45.03
2023-06-16T12:37:49.411Z,45.14
2023-06-16T12:38:49.423Z,45.91
2023-06-16T12:39:49.407Z,44.20
2023-06-16T12:40:49.419Z,45.24
2023-06-16T12:41:49.475Z,44.55
2023-06-16T12:42:49.523Z,44.86
2023-06-16T12:43:49.606Z,44.98
2023-06-16T12:44:49.647Z,45.37
2023-06-16T12:45:49.791Z,43.85
2023-06-16T12:46:49.786Z,44.35
2023-06-16T12:47:49.871Z,44.05
2023-06-16T12:48:49.837Z,44.09
2023-06-16T12:49:49.906Z,44.13
2023-06-16T12:50:49.964Z,43.85
2023-06-16T12:51:50.033Z,44.29
2023-06-16T12:52:50.045Z,44.60
2023-06-16T12:53:50.127Z,44.11
2023-06-16T12:54:50.150Z,44.19
2023-06-16T12:55:50.207Z,43.86
2023-06-16T12:56:50.277Z,43.72
2023-06-16T12:57:50.308Z,44.33
2023-06-16T12:58:50.355Z,44.08
2023-06-16T12:59:50.418Z,44.31
2023-06-16T13:00:50.456Z,43.64
2023-06-16T13:01:50.578Z,43.58
2023-06-16T13:02:50.609Z,42.91
2023-06-16T13:03:50.635Z,40.79
2023-06-16T13:04:50.788Z,41.84
2023-06-16T13:05:50.707Z,42.30
2023-06-16T13:06:50.759Z,42.59
2023-06-16T13:07:50.797Z,42.17
2023-06-16T13:08:50.869Z,39.64
2023-06-16T13:09:50.897Z,41.35
2023-06-16T13:10:50.953Z,41.30
2023-06-16T13:11:51.001Z,40.64
2023-06-16T13:12:51.078Z,40.56
2023-06-16T13:13:51.134Z,39.85
2023-06-16T13:14:51.178Z,39.05
2023-06-16T13:15:51.300Z,38.38
2023-06-16T13:16:51.279Z,39.43
2023-06-16T13:17:51.367Z,40.05